sensor_id;sensor_type;location;lat;lon;timestamp;pressure;altitude;pressure_sealevel;temperature;humidity
14242;BME280;7205;50.864;12.766;2023-03-05T00:01:18;97618.69;;;3.38;69.69
14242;BME280;7205;50.864;12.766;2023-03-05T00:03:48;97621.19;;;3.39;70.07
14242;BME280;7205;50.864;12.766;2023-03-05T00:06:16;97613.47;;;3.38;69.99
14242;BME280;7205;50.864;12.766;2023-03-05T00:08:43;97617.72;;;3.39;69.78
14242;BME280;7205;50.864;12.766;2023-03-05T00:11:11;97620.59;;;3.36;69.40
14242;BME280;7205;50.864;12.766;2023-03-05T00:13:38;97626.22;;;3.31;69.27
14242;BME280;7205;50.864;12.766;2023-03-05T00:16:07;97621.94;;;3.30;70.07
14242;BME280;7205;50.864;12.766;2023-03-05T00:18:34;97608.34;;;3.27;69.79
14242;BME280;7205;50.864;12.766;2023-03-05T00:21:03;97617.41;;;3.23;69.79
14242;BME280;7205;50.864;12.766;2023-03-05T00:23:30;97619.44;;;3.19;69.79
14242;BME280;7205;50.864;12.766;2023-03-05T00:26:00;97620.50;;;3.17;70.13
14242;BME280;7205;50.864;12.766;2023-03-05T00:28:28;97620.78;;;3.14;70.49
14242;BME280;7205;50.864;12.766;2023-03-05T00:30:58;97611.31;;;3.13;70.73
14242;BME280;7205;50.864;12.766;2023-03-05T00:33:25;97609.06;;;3.08;70.88
14242;BME280;7205;50.864;12.766;2023-03-05T00:35:52;97611.25;;;3.03;71.26
14242;BME280;7205;50.864;12.766;2023-03-05T00:38:20;97611.69;;;3.08;71.89
14242;BME280;7205;50.864;12.766;2023-03-05T00:40:49;97616.09;;;3.08;72.10
14242;BME280;7205;50.864;12.766;2023-03-05T00:43:16;97612.06;;;3.04;72.33
14242;BME280;7205;50.864;12.766;2023-03-05T00:45:43;97609.59;;;3.02;72.77
14242;BME280;7205;50.864;12.766;2023-03-05T00:48:11;97601.59;;;2.94;73.33
14242;BME280;7205;50.864;12.766;2023-03-05T00:50:37;97605.59;;;2.98;73.22
14242;BME280;7205;50.864;12.766;2023-03-05T00:53:04;97602.97;;;2.98;73.59
14242;BME280;7205;50.864;12.766;2023-03-05T00:55:32;97600.63;;;2.95;74.23
14242;BME280;7205;50.864;12.766;2023-03-05T00:58:00;97603.25;;;2.95;74.59
14242;BME280;7205;50.864;12.766;2023-03-05T01:00:27;97598.28;;;2.92;74.95
14242;BME280;7205;50.864;12.766;2023-03-05T01:02:54;97597.31;;;2.93;74.96
14242;BME280;7205;50.864;12.766;2023-03-05T01:05:21;97594.19;;;2.90;75.37
14242;BME280;7205;50.864;12.766;2023-03-05T01:07:51;97593.59;;;2.86;76.20
14242;BME280;7205;50.864;12.766;2023-03-05T01:10:18;97587.94;;;2.81;76.38
14242;BME280;7205;50.864;12.766;2023-03-05T01:12:47;97592.91;;;2.84;76.66
14242;BME280;7205;50.864;12.766;2023-03-05T01:15:14;97586.72;;;2.85;76.88
14242;BME280;7205;50.864;12.766;2023-03-05T01:17:41;97591.00;;;2.86;76.48
14242;BME280;7205;50.864;12.766;2023-03-05T01:20:11;97583.53;;;2.82;76.75
14242;BME280;7205;50.864;12.766;2023-03-05T01:22:39;97584.38;;;2.82;77.09
14242;BME280;7205;50.864;12.766;2023-03-05T01:25:06;97586.72;;;2.85;77.61
14242;BME280;7205;50.864;12.766;2023-03-05T01:27:34;97584.13;;;2.85;77.25
14242;BME280;7205;50.864;12.766;2023-03-05T01:30:04;97579.56;;;2.78;77.59
14242;BME280;7205;50.864;12.766;2023-03-05T01:32:32;97589.19;;;2.87;77.32
14242;BME280;7205;50.864;12.766;2023-03-05T01:35:00;97580.38;;;2.78;77.61
14242;BME280;7205;50.864;12.766;2023-03-05T01:37:30;97575.22;;;2.67;77.58
14242;BME280;7205;50.864;12.766;2023-03-05T01:39:57;97578.09;;;2.64;77.89
14242;BME280;7205;50.864;12.766;2023-03-05T01:42:24;97582.16;;;2.57;78.71
14242;BME280;7205;50.864;12.766;2023-03-05T01:47:02;97561.00;;;2.50;78.44
14242;BME280;7205;50.864;12.766;2023-03-05T01:49:30;97564.06;;;2.55;78.08
14242;BME280;7205;50.864;12.766;2023-03-05T01:52:07;97552.63;;;2.47;78.24
14242;BME280;7205;50.864;12.766;2023-03-05T01:54:41;97562.78;;;2.50;77.93
14242;BME280;7205;50.864;12.766;2023-03-05T01:57:11;97562.19;;;2.46;77.66
14242;BME280;7205;50.864;12.766;2023-03-05T01:59:50;97552.63;;;2.47;77.67
14242;BME280;7205;50.864;12.766;2023-03-05T02:02:23;97553.44;;;2.47;77.80
14242;BME280;7205;50.864;12.766;2023-03-05T02:04:54;97551.66;;;2.48;77.47
14242;BME280;7205;50.864;12.766;2023-03-05T02:07:23;97555.09;;;2.48;76.85
14242;BME280;7205;50.864;12.766;2023-03-05T02:09:50;97551.53;;;2.49;76.84
14242;BME280;7205;50.864;12.766;2023-03-05T02:12:17;97552.94;;;2.53;76.28
14242;BME280;7205;50.864;12.766;2023-03-05T02:14:45;97547.97;;;2.50;76.19
14242;BME280;7205;50.864;12.766;2023-03-05T02:17:14;97555.78;;;2.50;76.07
14242;BME280;7205;50.864;12.766;2023-03-05T02:19:51;97546.06;;;2.52;76.08
14242;BME280;7205;50.864;12.766;2023-03-05T02:22:21;97541.94;;;2.50;75.38
14242;BME280;7205;50.864;12.766;2023-03-05T02:24:49;97546.44;;;2.48;75.51
14242;BME280;7205;50.864;12.766;2023-03-05T02:27:16;97547.13;;;2.50;75.01
14242;BME280;7205;50.864;12.766;2023-03-05T02:29:45;97553.44;;;2.47;74.60
14242;BME280;7205;50.864;12.766;2023-03-05T02:32:13;97536.28;;;2.45;74.83
14242;BME280;7205;50.864;12.766;2023-03-05T02:34:40;97535.69;;;2.41;75.06
14242;BME280;7205;50.864;12.766;2023-03-05T02:37:07;97536.53;;;2.42;74.98
14242;BME280;7205;50.864;12.766;2023-03-05T02:39:37;97523.19;;;2.35;74.85
14242;BME280;7205;50.864;12.766;2023-03-05T02:42:05;97533.03;;;2.32;74.70
14242;BME280;7205;50.864;12.766;2023-03-05T02:44:32;97533.03;;;2.32;75.57
14242;BME280;7205;50.864;12.766;2023-03-05T02:46:59;97519.84;;;2.24;75.56
14242;BME280;7205;50.864;12.766;2023-03-05T02:49:27;97516.41;;;2.23;75.76
14242;BME280;7205;50.864;12.766;2023-03-05T02:52:13;97502.34;;;2.15;75.40
14242;BME280;7205;50.864;12.766;2023-03-05T02:54:42;97517.50;;;2.21;75.56
14242;BME280;7205;50.864;12.766;2023-03-05T02:57:09;97514.75;;;2.22;75.83
14242;BME280;7205;50.864;12.766;2023-03-05T02:59:35;97511.19;;;2.23;75.36
14242;BME280;7205;50.864;12.766;2023-03-05T03:02:02;97505.97;;;2.23;75.50
14242;BME280;7205;50.864;12.766;2023-03-05T03:04:29;97511.91;;;2.25;75.56
14242;BME280;7205;50.864;12.766;2023-03-05T03:06:56;97516.13;;;2.26;75.49
14242;BME280;7205;50.864;12.766;2023-03-05T03:09:23;97508.06;;;2.29;75.22
14242;BME280;7205;50.864;12.766;2023-03-05T03:11:51;97509.72;;;2.30;75.28
14242;BME280;7205;50.864;12.766;2023-03-05T03:14:18;97508.63;;;2.33;75.82
14242;BME280;7205;50.864;12.766;2023-03-05T03:16:45;97496.44;;;2.33;75.51
14242;BME280;7205;50.864;12.766;2023-03-05T03:19:12;97491.09;;;2.35;75.07
14242;BME280;7205;50.864;12.766;2023-03-05T03:21:40;97491.94;;;2.35;75.05
14242;BME280;7205;50.864;12.766;2023-03-05T03:24:07;97491.09;;;2.35;75.74
14242;BME280;7205;50.864;12.766;2023-03-05T03:26:34;97483.16;;;2.36;75.61
14242;BME280;7205;50.864;12.766;2023-03-05T03:29:02;97489.34;;;2.35;75.30
14242;BME280;7205;50.864;12.766;2023-03-05T03:31:29;97487.56;;;2.36;75.41
14242;BME280;7205;50.864;12.766;2023-03-05T03:33:56;97478.66;;;2.38;75.63
14242;BME280;7205;50.864;12.766;2023-03-05T03:36:23;97479.50;;;2.39;76.06
14242;BME280;7205;50.864;12.766;2023-03-05T03:38:50;97481.00;;;2.41;75.56
14242;BME280;7205;50.864;12.766;2023-03-05T03:41:17;97472.38;;;2.41;75.78
14242;BME280;7205;50.864;12.766;2023-03-05T03:43:44;97471.28;;;2.43;75.84
14242;BME280;7205;50.864;12.766;2023-03-05T03:46:12;97469.50;;;2.44;76.52
14242;BME280;7205;50.864;12.766;2023-03-05T03:48:39;97465.66;;;2.48;76.42
14242;BME280;7205;50.864;12.766;2023-03-05T03:51:07;97466.25;;;2.51;76.83
14242;BME280;7205;50.864;12.766;2023-03-05T03:53:33;97466.25;;;2.51;76.89
14242;BME280;7205;50.864;12.766;2023-03-05T03:56:00;97464.19;;;2.55;76.59
14242;BME280;7205;50.864;12.766;2023-03-05T03:58:28;97463.00;;;2.59;76.26
14242;BME280;7205;50.864;12.766;2023-03-05T04:00:55;97460.13;;;2.62;76.30
14242;BME280;7205;50.864;12.766;2023-03-05T04:03:23;97461.91;;;2.62;76.79
14242;BME280;7205;50.864;12.766;2023-03-05T04:05:50;97460.00;;;2.64;76.64
14242;BME280;7205;50.864;12.766;2023-03-05T04:08:17;97457.38;;;2.64;76.43
14242;BME280;7205;50.864;12.766;2023-03-05T04:10:44;97463.44;;;2.64;76.27
14242;BME280;7205;50.864;12.766;2023-03-05T04:13:10;97458.34;;;2.63;76.34
14242;BME280;7205;50.864;12.766;2023-03-05T04:15:38;97456.81;;;2.60;75.88
14242;BME280;7205;50.864;12.766;2023-03-05T04:18:05;97447.22;;;2.61;75.48
14242;BME280;7205;50.864;12.766;2023-03-05T04:20:33;97453.66;;;2.56;75.56
14242;BME280;7205;50.864;12.766;2023-03-05T04:22:59;97444.47;;;2.52;75.95
14242;BME280;7205;50.864;12.766;2023-03-05T04:25:26;97440.31;;;2.50;75.35
14242;BME280;7205;50.864;12.766;2023-03-05T04:27:54;97455.38;;;2.46;74.78
14242;BME280;7205;50.864;12.766;2023-03-05T04:30:21;97442.63;;;2.43;75.03
14242;BME280;7205;50.864;12.766;2023-03-05T04:32:48;97445.75;;;2.37;73.92
14242;BME280;7205;50.864;12.766;2023-03-05T04:35:16;97428.47;;;2.36;73.69
14242;BME280;7205;50.864;12.766;2023-03-05T04:37:44;97434.63;;;2.35;73.08
14242;BME280;7205;50.864;12.766;2023-03-05T04:40:13;97426.13;;;2.33;72.74
14242;BME280;7205;50.864;12.766;2023-03-05T04:42:40;97422.56;;;2.34;72.49
14242;BME280;7205;50.864;12.766;2023-03-05T04:45:07;97424.09;;;2.37;72.84
14242;BME280;7205;50.864;12.766;2023-03-05T04:47:35;97427.75;;;2.34;72.06
14242;BME280;7205;50.864;12.766;2023-03-05T04:50:03;97433.53;;;2.38;72.34
14242;BME280;7205;50.864;12.766;2023-03-05T04:52:30;97427.41;;;2.39;71.74
14242;BME280;7205;50.864;12.766;2023-03-05T04:54:58;97429.88;;;2.40;72.07
14242;BME280;7205;50.864;12.766;2023-03-05T04:57:25;97430.81;;;2.39;71.98
14242;BME280;7205;50.864;12.766;2023-03-05T04:59:52;97434.38;;;2.38;72.11
14242;BME280;7205;50.864;12.766;2023-03-05T05:02:19;97426.13;;;2.33;72.18
14242;BME280;7205;50.864;12.766;2023-03-05T05:04:45;97426.78;;;2.26;71.54
14242;BME280;7205;50.864;12.766;2023-03-05T05:07:12;97425.50;;;2.20;72.30
14242;BME280;7205;50.864;12.766;2023-03-05T05:09:39;97431.22;;;2.14;72.67
14242;BME280;7205;50.864;12.766;2023-03-05T05:12:08;97420.94;;;2.13;72.83
14242;BME280;7205;50.864;12.766;2023-03-05T05:14:36;97424.50;;;2.12;73.07
14242;BME280;7205;50.864;12.766;2023-03-05T05:17:03;97425.47;;;2.11;73.39
14242;BME280;7205;50.864;12.766;2023-03-05T05:19:30;97429.00;;;2.10;73.76
14242;BME280;7205;50.864;12.766;2023-03-05T05:21:57;97424.50;;;2.12;74.01
14242;BME280;7205;50.864;12.766;2023-03-05T05:24:24;97418.78;;;2.18;73.48
14242;BME280;7205;50.864;12.766;2023-03-05T05:26:53;97425.50;;;2.20;74.08
14242;BME280;7205;50.864;12.766;2023-03-05T05:29:22;97421.38;;;2.18;73.57
14242;BME280;7205;50.864;12.766;2023-03-05T05:31:49;97423.34;;;2.25;74.29
14242;BME280;7205;50.864;12.766;2023-03-05T05:34:17;97421.56;;;2.26;74.14
14242;BME280;7205;50.864;12.766;2023-03-05T05:36:44;97418.72;;;2.29;74.13
14242;BME280;7205;50.864;12.766;2023-03-05T05:39:11;97418.19;;;2.35;74.09
14242;BME280;7205;50.864;12.766;2023-03-05T05:41:38;97410.09;;;2.38;74.13
14242;BME280;7205;50.864;12.766;2023-03-05T05:44:04;97409.84;;;2.41;73.65
14242;BME280;7205;50.864;12.766;2023-03-05T05:46:33;97402.16;;;2.39;74.01
14242;BME280;7205;50.864;12.766;2023-03-05T05:49:00;97412.06;;;2.45;73.46
14242;BME280;7205;50.864;12.766;2023-03-05T05:51:26;97405.75;;;2.48;73.47
14242;BME280;7205;50.864;12.766;2023-03-05T05:53:53;97414.13;;;2.51;73.08
14242;BME280;7205;50.864;12.766;2023-03-05T05:56:20;97413.19;;;2.52;72.83
14242;BME280;7205;50.864;12.766;2023-03-05T05:58:47;97407.72;;;2.55;73.09
14242;BME280;7205;50.864;12.766;2023-03-05T06:01:17;97403.91;;;2.60;73.15
14242;BME280;7205;50.864;12.766;2023-03-05T06:03:45;97407.31;;;2.60;72.93
14242;BME280;7205;50.864;12.766;2023-03-05T06:06:14;97406.94;;;2.65;72.29
14242;BME280;7205;50.864;12.766;2023-03-05T06:08:42;97399.78;;;2.67;72.46
14242;BME280;7205;50.864;12.766;2023-03-05T06:11:09;97395.28;;;2.69;72.13
14242;BME280;7205;50.864;12.766;2023-03-05T06:13:36;97401.75;;;2.74;71.86
14242;BME280;7205;50.864;12.766;2023-03-05T06:16:05;97395.69;;;2.74;71.88
14242;BME280;7205;50.864;12.766;2023-03-05T06:18:33;97396.66;;;2.73;72.03
14242;BME280;7205;50.864;12.766;2023-03-05T06:21:03;97402.44;;;2.76;72.13
14242;BME280;7205;50.864;12.766;2023-03-05T06:23:31;97405.72;;;2.78;72.40
14242;BME280;7205;50.864;12.766;2023-03-05T06:26:00;97400.94;;;2.83;72.82
14242;BME280;7205;50.864;12.766;2023-03-05T06:28:28;97402.31;;;2.87;73.18
14242;BME280;7205;50.864;12.766;2023-03-05T06:31:02;97400.69;;;2.86;72.95
14242;BME280;7205;50.864;12.766;2023-03-05T06:33:29;97403.16;;;2.88;73.31
14242;BME280;7205;50.864;12.766;2023-03-05T06:36:01;97396.16;;;2.88;73.73
14242;BME280;7205;50.864;12.766;2023-03-05T06:38:29;97400.00;;;2.94;73.89
14242;BME280;7205;50.864;12.766;2023-03-05T06:40:59;97390.53;;;2.93;74.14
14242;BME280;7205;50.864;12.766;2023-03-05T06:43:26;97390.00;;;2.99;74.04
14242;BME280;7205;50.864;12.766;2023-03-05T06:46:00;97379.84;;;2.96;73.77
14242;BME280;7205;50.864;12.766;2023-03-05T06:48:27;97389.06;;;3.00;74.07
14242;BME280;7205;50.864;12.766;2023-03-05T06:50:54;97381.34;;;2.98;74.42
14242;BME280;7205;50.864;12.766;2023-03-05T06:53:22;97377.94;;;2.98;74.44
14242;BME280;7205;50.864;12.766;2023-03-05T06:55:51;97376.69;;;3.02;74.24
14242;BME280;7205;50.864;12.766;2023-03-05T06:58:19;97390.16;;;3.07;74.67
14242;BME280;7205;50.864;12.766;2023-03-05T07:00:47;97380.53;;;3.07;74.01
14242;BME280;7205;50.864;12.766;2023-03-05T07:03:13;97375.63;;;3.14;73.99
14242;BME280;7205;50.864;12.766;2023-03-05T07:05:42;97382.78;;;3.21;73.78
14242;BME280;7205;50.864;12.766;2023-03-05T07:08:09;97384.00;;;3.27;73.90
14242;BME280;7205;50.864;12.766;2023-03-05T07:10:37;97381.78;;;3.32;74.17
14242;BME280;7205;50.864;12.766;2023-03-05T07:13:06;97380.44;;;3.37;73.89
14242;BME280;7205;50.864;12.766;2023-03-05T07:15:37;97373.44;;;3.47;73.07
14242;BME280;7205;50.864;12.766;2023-03-05T07:18:04;97373.44;;;3.47;73.31
14242;BME280;7205;50.864;12.766;2023-03-05T07:20:33;97364.91;;;3.55;73.14
14242;BME280;7205;50.864;12.766;2023-03-05T07:22:59;97375.63;;;3.61;72.64
14242;BME280;7205;50.864;12.766;2023-03-05T07:25:26;97373.69;;;3.63;72.83
14242;BME280;7205;50.864;12.766;2023-03-05T07:27:53;97370.25;;;3.72;72.36
14242;BME280;7205;50.864;12.766;2023-03-05T07:30:25;97376.16;;;3.74;71.95
14242;BME280;7205;50.864;12.766;2023-03-05T07:32:52;97380.25;;;3.77;71.42
14242;BME280;7205;50.864;12.766;2023-03-05T07:35:53;97369.16;;;3.75;71.02
14242;BME280;7205;50.864;12.766;2023-03-05T07:38:21;97370.25;;;3.72;70.81
14242;BME280;7205;50.864;12.766;2023-03-05T07:41:01;97373.97;;;3.70;70.88
14242;BME280;7205;50.864;12.766;2023-03-05T07:43:36;97367.78;;;3.71;70.68
14242;BME280;7205;50.864;12.766;2023-03-05T07:46:10;97369.97;;;3.75;70.63
14242;BME280;7205;50.864;12.766;2023-03-05T07:48:42;97361.03;;;3.78;71.05
14242;BME280;7205;50.864;12.766;2023-03-05T07:51:57;97364.59;;;3.87;70.71
14242;BME280;7205;50.864;12.766;2023-03-05T07:54:44;97349.59;;;3.88;70.82
14242;BME280;7205;50.864;12.766;2023-03-05T07:57:24;97362.22;;;4.03;70.18
14242;BME280;7205;50.864;12.766;2023-03-05T08:00:39;97363.59;;;4.07;69.35
14242;BME280;7205;50.864;12.766;2023-03-05T08:03:28;97362.88;;;4.14;68.07
14242;BME280;7205;50.864;12.766;2023-03-05T08:06:27;97352.72;;;4.11;67.89
14242;BME280;7205;50.864;12.766;2023-03-05T08:09:57;97349.50;;;4.17;67.66
14242;BME280;7205;50.864;12.766;2023-03-05T08:13:14;97353.31;;;4.32;67.18
14242;BME280;7205;50.864;12.766;2023-03-05T08:16:10;97350.69;;;4.42;66.94
14242;BME280;7205;50.864;12.766;2023-03-05T08:19:23;97344.28;;;4.54;65.98
14242;BME280;7205;50.864;12.766;2023-03-05T08:21:59;97352.38;;;4.60;65.76
14242;BME280;7205;50.864;12.766;2023-03-05T08:24:59;97336.41;;;4.63;65.48
14242;BME280;7205;50.864;12.766;2023-03-05T08:27:29;97350.00;;;4.67;64.33
14242;BME280;7205;50.864;12.766;2023-03-05T08:29:57;97330.25;;;4.55;63.94
14242;BME280;7205;50.864;12.766;2023-03-05T08:32:29;97339.56;;;4.57;64.18
14242;BME280;7205;50.864;12.766;2023-03-05T08:35:07;97341.66;;;4.54;64.91
14242;BME280;7205;50.864;12.766;2023-03-05T08:37:35;97334.56;;;4.46;64.51
14242;BME280;7205;50.864;12.766;2023-03-05T08:40:14;97330.72;;;4.41;64.97
14242;BME280;7205;50.864;12.766;2023-03-05T08:42:54;97318.69;;;4.30;65.01
14242;BME280;7205;50.864;12.766;2023-03-05T08:45:39;97323.63;;;4.33;65.32
14242;BME280;7205;50.864;12.766;2023-03-05T08:48:08;97319.78;;;4.28;65.54
14242;BME280;7205;50.864;12.766;2023-03-05T08:50:51;97324.56;;;4.32;65.42
14242;BME280;7205;50.864;12.766;2023-03-05T08:53:22;97314.13;;;4.32;66.00
14242;BME280;7205;50.864;12.766;2023-03-05T08:55:53;97325.25;;;4.34;66.50
14242;BME280;7205;50.864;12.766;2023-03-05T08:58:20;97319.06;;;4.35;65.66
14242;BME280;7205;50.864;12.766;2023-03-05T09:00:50;97328.44;;;4.28;65.36
14242;BME280;7205;50.864;12.766;2023-03-05T09:03:19;97326.28;;;4.14;65.69
14242;BME280;7205;50.864;12.766;2023-03-05T09:05:50;97315.34;;;4.01;66.52
14242;BME280;7205;50.864;12.766;2023-03-05T09:08:18;97330.50;;;3.88;66.57
14242;BME280;7205;50.864;12.766;2023-03-05T09:10:45;97329.44;;;3.81;67.46
14242;BME280;7205;50.864;12.766;2023-03-05T09:13:12;97337.00;;;3.74;67.82
14242;BME280;7205;50.864;12.766;2023-03-05T09:15:44;97325.47;;;3.67;68.73
14242;BME280;7205;50.864;12.766;2023-03-05T09:18:15;97320.25;;;3.67;69.12
14242;BME280;7205;50.864;12.766;2023-03-05T09:20:54;97317.78;;;3.66;69.53
14242;BME280;7205;50.864;12.766;2023-03-05T09:23:26;97331.38;;;3.69;70.39
14242;BME280;7205;50.864;12.766;2023-03-05T09:25:53;97323.00;;;3.66;70.11
14242;BME280;7205;50.864;12.766;2023-03-05T09:28:20;97348.97;;;3.58;70.44
14242;BME280;7205;50.864;12.766;2023-03-05T09:30:49;97332.66;;;3.46;71.03
14242;BME280;7205;50.864;12.766;2023-03-05T09:33:29;97339.81;;;3.35;72.41
14242;BME280;7205;50.864;12.766;2023-03-05T09:35:58;97323.88;;;3.38;74.19
14242;BME280;7205;50.864;12.766;2023-03-05T09:38:28;97342.94;;;3.57;75.17
14242;BME280;7205;50.864;12.766;2023-03-05T09:41:03;97325.97;;;3.80;76.15
14242;BME280;7205;50.864;12.766;2023-03-05T09:43:54;97326.47;;;4.03;76.33
14242;BME280;7205;50.864;12.766;2023-03-05T09:46:50;97326.53;;;4.21;75.24
14242;BME280;7205;50.864;12.766;2023-03-05T09:49:24;97317.59;;;4.23;74.59
14242;BME280;7205;50.864;12.766;2023-03-05T09:52:02;97320.38;;;4.22;74.46
14242;BME280;7205;50.864;12.766;2023-03-05T09:54:37;97309.53;;;4.17;74.32
14242;BME280;7205;50.864;12.766;2023-03-05T09:57:16;97310.06;;;4.20;74.92
14242;BME280;7205;50.864;12.766;2023-03-05T09:59:52;97306.47;;;4.21;75.18
14242;BME280;7205;50.864;12.766;2023-03-05T10:02:40;97316.25;;;4.19;75.10
14242;BME280;7205;50.864;12.766;2023-03-05T10:05:28;97311.06;;;4.10;74.89
14242;BME280;7205;50.864;12.766;2023-03-05T10:14:22;97296.34;;;4.45;77.96
14242;BME280;7205;50.864;12.766;2023-03-05T10:17:03;97295.13;;;4.57;77.41
14242;BME280;7205;50.864;12.766;2023-03-05T10:20:03;97287.41;;;4.65;76.97
14242;BME280;7205;50.864;12.766;2023-03-05T10:22:41;97280.75;;;4.71;77.02
14242;BME280;7205;50.864;12.766;2023-03-05T10:25:25;97283.16;;;4.82;77.29
14242;BME280;7205;50.864;12.766;2023-03-05T10:28:02;97275.53;;;4.88;77.26
14242;BME280;7205;50.864;12.766;2023-03-05T10:30:37;97276.13;;;5.00;77.17
14242;BME280;7205;50.864;12.766;2023-03-05T10:33:14;97272.59;;;5.09;76.38
14242;BME280;7205;50.864;12.766;2023-03-05T10:35:55;97267.78;;;5.14;75.98
14242;BME280;7205;50.864;12.766;2023-03-05T10:39:04;97263.28;;;5.24;75.90
14242;BME280;7205;50.864;12.766;2023-03-05T10:41:49;97257.75;;;5.27;75.48
14242;BME280;7205;50.864;12.766;2023-03-05T10:48:27;97253.91;;;5.22;73.82
14242;BME280;7205;50.864;12.766;2023-03-05T10:51:04;97244.28;;;5.22;73.85
14242;BME280;7205;50.864;12.766;2023-03-05T10:58:26;97237.28;;;5.05;72.93
14242;BME280;7205;50.864;12.766;2023-03-05T11:01:17;97228.38;;;4.98;73.11
14242;BME280;7205;50.864;12.766;2023-03-05T11:04:04;97235.13;;;5.00;73.44
14242;BME280;7205;50.864;12.766;2023-03-05T11:06:37;97216.50;;;5.03;72.80
14242;BME280;7205;50.864;12.766;2023-03-05T11:09:28;97216.75;;;5.18;73.57
14242;BME280;7205;50.864;12.766;2023-03-05T11:12:17;97213.81;;;5.39;73.90
14242;BME280;7205;50.864;12.766;2023-03-05T11:15:28;97212.78;;;5.57;73.05
14242;BME280;7205;50.864;12.766;2023-03-05T11:26:00;97199.91;;;5.64;68.69
14242;BME280;7205;50.864;12.766;2023-03-05T11:29:02;97196.09;;;5.58;68.88
14242;BME280;7205;50.864;12.766;2023-03-05T11:34:28;97184.31;;;5.54;68.17
14242;BME280;7205;50.864;12.766;2023-03-05T11:35:46;97189.94;;;5.67;68.66
14242;BME280;7205;50.864;12.766;2023-03-05T11:38:44;97185.78;;;5.82;67.62
14242;BME280;7205;50.864;12.766;2023-03-05T11:41:56;97174.44;;;5.82;65.70
14242;BME280;7205;50.864;12.766;2023-03-05T11:44:49;97167.16;;;5.68;64.37
14242;BME280;7205;50.864;12.766;2023-03-05T11:48:25;97164.78;;;5.49;63.82
14242;BME280;7205;50.864;12.766;2023-03-05T11:51:44;97164.19;;;5.29;64.03
14242;BME280;7205;50.864;12.766;2023-03-05T12:45:41;97106.22;;;4.30;70.65
14242;BME280;7205;50.864;12.766;2023-03-05T12:48:43;97102.47;;;4.32;71.38
14242;BME280;7205;50.864;12.766;2023-03-05T12:51:27;97107.53;;;4.34;71.29
14242;BME280;7205;50.864;12.766;2023-03-05T12:53:55;97112.75;;;4.34;71.27
14242;BME280;7205;50.864;12.766;2023-03-05T12:56:25;97116.88;;;4.36;71.53
14242;BME280;7205;50.864;12.766;2023-03-05T12:58:57;97109.03;;;4.36;70.93
14242;BME280;7205;50.864;12.766;2023-03-05T13:01:39;97105.91;;;4.33;69.77
14242;BME280;7205;50.864;12.766;2023-03-05T13:04:14;97100.16;;;4.29;70.17
14242;BME280;7205;50.864;12.766;2023-03-05T13:06:44;97096.13;;;4.35;70.27
14242;BME280;7205;50.864;12.766;2023-03-05T13:09:16;97107.47;;;4.43;70.79
14242;BME280;7205;50.864;12.766;2023-03-05T13:11:45;97096.09;;;4.52;71.02
14242;BME280;7205;50.864;12.766;2023-03-05T13:14:27;97091.31;;;4.65;71.50
14242;BME280;7205;50.864;12.766;2023-03-05T13:16:56;97093.06;;;4.82;71.42
14242;BME280;7205;50.864;12.766;2023-03-05T13:19:23;97094.44;;;4.94;70.94
14242;BME280;7205;50.864;12.766;2023-03-05T13:25:39;97077.25;;;5.18;69.44
14242;BME280;7205;50.864;12.766;2023-03-05T13:28:10;97077.75;;;5.21;68.72
14242;BME280;7205;50.864;12.766;2023-03-05T13:30:38;97081.06;;;5.23;68.33
14242;BME280;7205;50.864;12.766;2023-03-05T13:41:00;97075.69;;;5.33;68.32
14242;BME280;7205;50.864;12.766;2023-03-05T13:43:27;97077.88;;;5.37;67.56
14242;BME280;7205;50.864;12.766;2023-03-05T13:45:54;97065.56;;;5.38;67.07
14242;BME280;7205;50.864;12.766;2023-03-05T13:48:25;97068.19;;;5.38;66.59
14242;BME280;7205;50.864;12.766;2023-03-05T13:50:54;97074.75;;;5.42;66.42
14242;BME280;7205;50.864;12.766;2023-03-05T13:53:24;97064.28;;;5.42;66.41
14242;BME280;7205;50.864;12.766;2023-03-05T13:55:55;97068.09;;;5.47;66.29
14242;BME280;7205;50.864;12.766;2023-03-05T14:01:25;97050.47;;;5.57;66.29
14242;BME280;7205;50.864;12.766;2023-03-05T14:03:53;97058.34;;;5.65;66.56
14242;BME280;7205;50.864;12.766;2023-03-05T14:06:24;97041.97;;;5.71;66.56
14242;BME280;7205;50.864;12.766;2023-03-05T14:09:01;97054.16;;;5.88;66.47
14242;BME280;7205;50.864;12.766;2023-03-05T14:11:30;97055.16;;;5.95;65.96
14242;BME280;7205;50.864;12.766;2023-03-05T14:14:01;97050.25;;;5.92;65.34
14242;BME280;7205;50.864;12.766;2023-03-05T14:16:30;97050.88;;;5.86;65.32
14242;BME280;7205;50.864;12.766;2023-03-05T14:18:59;97047.03;;;5.73;64.86
14242;BME280;7205;50.864;12.766;2023-03-05T14:21:42;97044.72;;;5.54;65.08
14242;BME280;7205;50.864;12.766;2023-03-05T14:24:12;97042.00;;;5.38;64.98
14242;BME280;7205;50.864;12.766;2023-03-05T14:26:47;97033.44;;;5.20;65.24
14242;BME280;7205;50.864;12.766;2023-03-05T14:29:16;97037.63;;;5.04;65.28
14242;BME280;7205;50.864;12.766;2023-03-05T14:31:48;97032.66;;;4.93;65.45
14242;BME280;7205;50.864;12.766;2023-03-05T14:34:20;97025.59;;;4.86;65.62
14242;BME280;7205;50.864;12.766;2023-03-05T14:36:49;97023.28;;;4.83;65.97
14242;BME280;7205;50.864;12.766;2023-03-05T14:39:26;97015.13;;;4.86;66.43
14242;BME280;7205;50.864;12.766;2023-03-05T14:41:55;97012.19;;;4.89;66.68
14242;BME280;7205;50.864;12.766;2023-03-05T14:44:37;97004.91;;;5.00;66.57
14242;BME280;7205;50.864;12.766;2023-03-05T14:47:05;97012.28;;;5.05;66.68
14242;BME280;7205;50.864;12.766;2023-03-05T14:49:32;97021.97;;;5.12;66.64
14242;BME280;7205;50.864;12.766;2023-03-05T14:51:59;97004.81;;;5.18;66.40
14242;BME280;7205;50.864;12.766;2023-03-05T14:54:25;97009.13;;;5.27;66.74
14242;BME280;7205;50.864;12.766;2023-03-05T14:56:52;97007.97;;;5.30;66.52
14242;BME280;7205;50.864;12.766;2023-03-05T14:59:21;97004.22;;;5.32;66.70
14242;BME280;7205;50.864;12.766;2023-03-05T15:01:47;96998.84;;;5.34;66.48
14242;BME280;7205;50.864;12.766;2023-03-05T15:04:15;97001.28;;;5.35;66.74
14242;BME280;7205;50.864;12.766;2023-03-05T15:06:44;96999.94;;;5.31;66.34
14242;BME280;7205;50.864;12.766;2023-03-05T15:09:15;96997.00;;;5.26;66.11
14242;BME280;7205;50.864;12.766;2023-03-05T15:11:42;96993.41;;;5.19;66.48